• Join FlightAware (Why Join?)
  • Login
  • US Flag 
01:55PM EST


 

Airport Tracker/Info


-or-


 

Live Flight TrackerFlight Track Log ✈ UPS1231 ✈ 02-May-2014 ✈ KRIC - KSDF

Flight Track Log - Related Links

Times and Time Zones

All times are in EDT time to prevent confusion due to time zone crossing. See the UPS1231 flight status page for this flight to view local times or setup timezone preferences in your user account.

Time Position Orientation Groundspeed Altitude Reporting Facility
EDT Latitude Longitude Course Direction KTS MPH feet Rate Location/Type
10:16PM 37.4833 -77.3333 270° West 149 171 1,900  Level Potomac TRACON
10:17PM 37.4833 -77.4000 270° West 215 247 3,800 1,320 Climbing Potomac TRACON
10:18PM 37.4742 -77.4969 263° West 245 282 4,900 2,520 Climbing Washington Center
10:24PM 37.3557 -78.0555 252° West 337 388 20,600 2,880 Climbing FlightAware ADS-B (KWWD)
10:25PM 37.3231 -78.1766 251° West 348 400 23,500 2,340 Climbing FlightAware ADS-B (KWWD)
10:25PM 37.3144 -78.2214 251° West 346 398 24,400 1,560 Climbing Washington Center
10:26PM 37.2972 -78.3358 259° West 341 392 26,000 1,260 Climbing Washington Center
10:28PM 37.3650 -78.4636 304° West 358 412 27,000 480 Climbing Washington Center
10:29PM 37.4058 -78.5881 292° West 368 423 27,000  Level Washington Center
10:29PM 37.4444 -78.7125 291° West 383 441 27,000 420 Level Washington Center
10:30PM 37.4828 -78.8372 291° West 383 441 27,900 960 Climbing Washington Center
10:31PM 37.5192 -78.9539 291° West 395 455 29,000 1,320 Climbing Washington Center
10:33PM 37.5508 -79.0889 287° West 400 460 30,600 1,500 Climbing Washington Center
10:33PM 37.5550 -79.2306 272° West 384 442 32,000 660 Climbing Washington Center
10:34PM 37.5556 -79.3483 270° West 378 435 32,000  Level Washington Center
10:35PM 37.5572 -79.4900 271° West 373 429 32,000  Level Washington Center
10:37PM 37.5575 -79.6053 270° West 373 429 32,000  Level Washington Center
10:38PM 37.5589 -79.7519 271° West 373 429 32,000  Level Washington Center
10:38PM 37.5603 -79.8883 271° West 378 435 32,000  Level Washington Center
10:40PM 37.5597 -80.0167 270° West 383 441 32,000  Level Washington Center
10:40PM 37.5589 -80.1478 270° West 383 441 32,000  Level Washington Center
10:42PM 37.5592 -80.3922 270° West 375 432 32,000  Level Indianapolis Center
10:43PM 37.5606 -80.5183 271° West 373 429 32,000  Level Indianapolis Center
10:45PM 37.5592 -80.6703 269° West 373 429 32,000  Level Indianapolis Center
10:46PM 37.5589 -80.7972 270° West 373 429 32,000  Level Indianapolis Center
10:47PM 37.5586 -80.9228 270° West 372 428 32,000  Level Indianapolis Center
10:48PM 37.5581 -81.0489 270° West 372 428 32,000  Level Indianapolis Center
10:49PM 37.5569 -81.1753 269° West 372 428 32,000  Level Indianapolis Center
10:50PM 37.5572 -81.3272 270° West 372 428 32,000  Level Indianapolis Center
10:51PM 37.5553 -81.4531 269° West 372 428 32,000  Level Indianapolis Center
10:52PM 37.5547 -81.5878 270° West 371 427 32,000  Level Indianapolis Center
10:53PM 37.5536 -81.7169 269° West 371 427 32,000  Level Indianapolis Center
10:54PM 37.5511 -81.8461 269° West 371 427 32,000  Level Indianapolis Center
10:55PM 37.5511 -81.9753 270° West 371 427 32,000  Level Indianapolis Center
10:56PM 37.5489 -82.1036 269° West 370 426 32,000  Level Indianapolis Center
10:57PM 37.5467 -82.2300 269° West 368 423 32,000  Level Indianapolis Center
10:58PM 37.5447 -82.3575 269° West 367 422 32,000  Level Indianapolis Center
10:59PM 37.5428 -82.5064 269° West 367 422 32,000  Level Indianapolis Center
11:00PM 37.5400 -82.6347 268° West 367 422 32,000  Level Indianapolis Center
11:01PM 37.5375 -82.7622 269° West 367 422 32,000  Level Indianapolis Center
11:02PM 37.5344 -82.8886 268° West 366 421 32,000  Level Indianapolis Center
11:03PM 37.5319 -83.0158 269° West 366 421 32,000  Level Indianapolis Center
11:04PM 37.5294 -83.1417 269° West 366 421 32,000  Level Indianapolis Center
11:05PM 37.5247 -83.2664 267° West 363 418 32,000  Level Indianapolis Center
11:06PM 37.5219 -83.3933 268° West 362 417 32,000 -240 Level Indianapolis Center
11:07PM 37.5192 -83.5197 268° West 362 417 31,600 -960 Descending Indianapolis Center
11:13PM 37.4936 -84.3239 268° West 379 436 25,300 -1,200 Descending Indianapolis Center
11:14PM 37.4903 -84.4592 268° West 382 440 23,200 -2,640 Descending Indianapolis Center
11:15PM 37.4861 -84.6000 268° West 396 456 20,000 -3,120 Descending Indianapolis Center
11:16PM 37.5019 -84.7422 278° West 394 453 16,900 -2,880 Descending Indianapolis Center
11:17PM 37.5678 -84.8358 312° West 385 443 14,300 -2,640 Descending Indianapolis Center
11:18PM 37.6383 -84.9311 313° West 377 434 11,600 -1,920 Descending Indianapolis Center
11:19PM 37.7025 -85.0186 313° West 347 399 10,500 -840 Descending Indianapolis Center
11:20PM 37.7381 -85.1069 297° West 290 334 10,000 -960 Descending Indianapolis Center
11:26PM 37.8939 -85.5946 310° West 222 255 4,000 -960 Descending FlightAware ADS-B (EPWR / WRO)
11:27PM 37.9177 -85.6290 313° West 193 222 4,000  Level FlightAware ADS-B (EPWR / WRO)
11:27PM 37.9381 -85.6572 313° West 215 247 4,000  Level Indianapolis Center
11:28PM 37.9850 -85.6822 337° Northwest 198 228 4,000 -480 Level Indianapolis Center
11:29PM 38.0311 -85.6961 347° North 182 209 3,100 -660 Descending Indianapolis Center
11:30PM 38.0731 -85.7114 344° North 178 205 2,700 -420 Descending Indianapolis Center
11:33PM 38.1741 -85.7365 345° North  Level Estimated
11:40PM 38.1741 -85.7365 208° Southwest  Level Estimated
11:41PM 38.1741 -85.7365 208° Southwest  Level Estimated